KTWF/TWF METAR and TAF weather

Enter ICAO airport designator
Station Type Date Time Source
KTWF METAR 2022/01/18 06:53 UTC NOAA

KTWF 180653Z AUTO 20003KT 1/4SM FZFG VV002 M07/M08 A3006 RMK AO2 SLP206 I1001 T10671083 410171100


Station Type Date Time Source
KTWF Decoded METAR 2022/01/18 06:53 UTC NOAA

JOSLIN FLD-MAGIC VALLEY REGL, ID, United States (KTWF) 42-29N 114-29W 1266M
Jan 18, 2022 - 01:53 AM EST / 2022.01.18 0653 UTC
Wind: from the SSW (200 degrees) at 3 MPH (3 KT):0
Visibility: 1/4 mile(s):0
Sky conditions: obscured
Weather: freezing fog
Temperature: 19.9 F (-6.7 C)
Dew Point: 17.1 F (-8.3 C)
Relative Humidity: 88%
Pressure (altimeter): 30.06 in. Hg (1017 hPa)
ob: KTWF 180653Z AUTO 20003KT 1/4SM FZFG VV002 M07/M08 A3006 RMK AO2 SLP206 I1001 T10671083 410171100
cycle: 7

Station Type Date Time Source
KTWF TAF 2022/01/18 06:27 UTC NOAA

TAF KTWF 180524Z 1806/1906 VRB03KT 1/4SM FZFG VV002
FM182000 29005KT 5SM BR BKN010
FM190300 23005KT 1/2SM FZFG VV002

Example: see airport list